createdAt,value
2023-04-12T00:00:31.862Z,16.73
2023-04-12T00:03:03.860Z,10.80
2023-04-12T00:05:34.467Z,13.40
2023-04-12T00:08:05.150Z,11.30
2023-04-12T00:10:33.182Z,8.07
2023-04-12T00:13:01.192Z,9.17
2023-04-12T00:15:29.234Z,14.93
2023-04-12T00:17:57.169Z,14.37
2023-04-12T00:20:25.265Z,10.80
2023-04-12T00:22:54.825Z,8.47
2023-04-12T00:25:22.617Z,11.90
2023-04-12T00:27:50.388Z,10.20
2023-04-12T00:30:18.477Z,7.90
2023-04-12T00:32:46.263Z,13.33
2023-04-12T00:35:14.149Z,10.03
2023-04-12T00:37:42.076Z,10.63
2023-04-12T00:40:12.800Z,10.53
2023-04-12T00:42:40.555Z,10.40
2023-04-12T00:45:09.678Z,9.10
2023-04-12T00:47:37.677Z,6.97
2023-04-12T00:50:06.088Z,8.03
2023-04-12T00:52:35.493Z,8.47
2023-04-12T00:55:04.143Z,9.70
2023-04-12T00:57:35.747Z,12.33
2023-04-12T01:00:05.303Z,6.27
2023-04-12T01:02:33.477Z,7.07
2023-04-12T01:05:01.466Z,7.30
2023-04-12T01:07:37.211Z,8.20
2023-04-12T01:10:09.308Z,6.30
2023-04-12T01:12:42.792Z,7.60
2023-04-12T01:15:12.909Z,8.50
2023-04-12T01:17:45.411Z,7.50
2023-04-12T01:20:17.160Z,10.57
2023-04-12T01:22:57.311Z,7.30
2023-04-12T01:25:39.183Z,8.60
2023-04-12T01:28:09.335Z,6.07
2023-04-12T01:30:37.033Z,7.10
2023-04-12T01:33:06.926Z,10.30
2023-04-12T01:35:35.530Z,9.20
2023-04-12T01:38:03.853Z,7.53
2023-04-12T01:40:32.440Z,7.00
2023-04-12T01:43:08.112Z,5.67
2023-04-12T01:45:35.944Z,7.50
2023-04-12T01:48:04.674Z,8.90
2023-04-12T01:50:37.160Z,7.03
2023-04-12T01:53:08.916Z,4.20
2023-04-12T01:55:37.570Z,8.50
2023-04-12T01:58:05.578Z,8.73
2023-04-12T02:00:34.830Z,5.23
2023-04-12T02:03:03.399Z,6.13
2023-04-12T02:05:31.474Z,6.27
2023-04-12T02:07:59.834Z,7.67
2023-04-12T02:10:30.625Z,4.27
2023-04-12T02:13:01.071Z,4.73
2023-04-12T02:15:28.988Z,7.27
2023-04-12T02:17:59.779Z,5.77
2023-04-12T02:20:28.400Z,5.80
2023-04-12T02:22:56.557Z,5.37
2023-04-12T02:25:24.360Z,3.20
2023-04-12T02:27:52.434Z,6.20
2023-04-12T02:30:20.487Z,4.07
2023-04-12T02:32:48.475Z,8.47
2023-04-12T02:35:19.887Z,3.57
2023-04-12T02:37:48.480Z,6.07
2023-04-12T02:40:16.405Z,5.47
2023-04-12T02:42:44.418Z,4.97
2023-04-12T02:45:12.654Z,4.80
2023-04-12T02:47:41.012Z,7.53
2023-04-12T02:50:10.014Z,5.00
2023-04-12T02:52:39.324Z,5.37
2023-04-12T02:55:09.070Z,4.87
2023-04-12T02:57:37.043Z,5.83
2023-04-12T03:00:12.233Z,3.63
2023-04-12T03:02:41.149Z,3.23
2023-04-12T03:05:09.480Z,6.07
2023-04-12T03:07:37.515Z,3.57
2023-04-12T03:10:08.070Z,3.80
2023-04-12T03:12:36.392Z,2.90
2023-04-12T03:15:04.262Z,5.30
2023-04-12T03:17:32.171Z,5.20
2023-04-12T03:20:06.415Z,3.80
2023-04-12T03:22:34.385Z,4.70
2023-04-12T03:25:05.429Z,3.90
2023-04-12T03:27:35.089Z,3.47
2023-04-12T03:30:04.036Z,4.00
2023-04-12T03:32:32.426Z,4.40
2023-04-12T03:35:00.555Z,5.43
2023-04-12T03:37:28.358Z,2.70
2023-04-12T03:39:56.122Z,3.83
2023-04-12T03:42:33.170Z,3.20
2023-04-12T03:45:03.257Z,6.17
2023-04-12T03:47:32.067Z,3.50
2023-04-12T03:50:11.587Z,4.37
2023-04-12T03:52:40.265Z,3.27
2023-04-12T03:55:08.633Z,2.63
2023-04-12T03:57:36.450Z,3.87
2023-04-12T04:00:08.429Z,5.07
2023-04-12T04:02:36.783Z,4.87
2023-04-12T04:05:05.382Z,2.80
2023-04-12T04:07:33.527Z,4.17
2023-04-12T04:10:01.775Z,5.07
2023-04-12T04:12:29.736Z,7.30
2023-04-12T04:14:58.024Z,2.90
2023-04-12T04:17:27.314Z,3.50
2023-04-12T04:19:55.292Z,2.90
2023-04-12T04:22:23.361Z,4.67
2023-04-12T04:24:51.710Z,3.93
2023-04-12T04:27:20.563Z,4.57
2023-04-12T04:29:48.441Z,4.83
2023-04-12T04:32:16.287Z,3.47
2023-04-12T04:34:45.978Z,2.47
2023-04-12T04:37:13.889Z,3.30
2023-04-12T04:39:41.658Z,3.30
2023-04-12T04:42:09.583Z,3.60
2023-04-12T04:44:39.473Z,4.40
2023-04-12T04:47:08.978Z,3.40
2023-04-12T04:49:37.073Z,3.23
2023-04-12T04:52:08.576Z,4.90
2023-04-12T04:54:38.747Z,2.60
2023-04-12T04:57:11.523Z,6.43
2023-04-12T04:59:39.543Z,3.13
2023-04-12T05:02:08.025Z,4.30
2023-04-12T05:04:35.950Z,4.90
2023-04-12T05:07:04.945Z,4.80
2023-04-12T05:09:34.338Z,4.17
2023-04-12T05:12:02.272Z,2.30
2023-04-12T05:14:41.661Z,4.60
2023-04-12T05:17:13.819Z,5.20
2023-04-12T05:19:43.796Z,4.20
2023-04-12T05:22:13.000Z,2.60
2023-04-12T05:24:42.549Z,4.90
2023-04-12T05:27:10.586Z,5.10
2023-04-12T05:29:38.494Z,3.90
2023-04-12T05:32:06.558Z,2.50
2023-04-12T05:34:34.522Z,5.73
2023-04-12T05:37:02.445Z,3.10
2023-04-12T05:39:30.876Z,4.00
2023-04-12T05:42:00.678Z,5.30
2023-04-12T05:44:28.674Z,4.80
2023-04-12T05:46:56.715Z,5.77
2023-04-12T05:49:24.701Z,4.30
2023-04-12T05:51:52.716Z,3.20
2023-04-12T05:54:21.765Z,3.40
2023-04-12T05:56:49.720Z,5.00
2023-04-12T05:59:20.193Z,4.47
2023-04-12T06:01:48.190Z,3.33
2023-04-12T06:04:16.438Z,4.00
2023-04-12T06:06:44.595Z,4.67
2023-04-12T06:09:13.292Z,3.20
2023-04-12T06:11:41.039Z,3.47
2023-04-12T06:14:11.664Z,3.70
2023-04-12T06:16:42.144Z,3.17
2023-04-12T06:19:11.134Z,2.90
2023-04-12T06:21:39.246Z,6.30
2023-04-12T06:24:09.225Z,3.10
2023-04-12T06:26:40.160Z,2.80
2023-04-12T06:29:08.374Z,7.13
2023-04-12T06:31:36.355Z,4.60
2023-04-12T06:34:05.674Z,6.47
2023-04-12T06:36:33.496Z,2.93
2023-04-12T06:39:01.500Z,3.10
2023-04-12T06:41:29.865Z,4.20
2023-04-12T06:43:57.870Z,4.50
2023-04-12T06:46:28.861Z,3.77
2023-04-12T06:48:57.275Z,8.77
2023-04-12T06:51:28.110Z,5.63
2023-04-12T06:53:57.766Z,7.03
2023-04-12T06:56:25.909Z,6.40
2023-04-12T06:58:53.828Z,2.90
2023-04-12T07:01:21.847Z,7.67
2023-04-12T07:03:49.902Z,5.60
2023-04-12T07:06:25.041Z,1.97
2023-04-12T07:08:55.230Z,4.27
2023-04-12T07:11:23.987Z,7.50
2023-04-12T07:13:52.125Z,4.50
2023-04-12T07:16:20.707Z,7.10
2023-04-12T07:18:49.178Z,3.60
2023-04-12T07:21:18.410Z,3.10
2023-04-12T07:23:51.162Z,5.83
2023-04-12T07:26:21.727Z,2.90
2023-04-12T07:28:49.795Z,2.40
2023-04-12T07:31:17.864Z,4.90
2023-04-12T07:33:46.047Z,5.27
2023-04-12T07:36:16.234Z,3.47
2023-04-12T07:38:44.057Z,3.97
2023-04-12T07:41:11.821Z,3.97
2023-04-12T07:43:40.956Z,7.47
2023-04-12T07:46:09.100Z,4.37
2023-04-12T07:48:37.186Z,3.60
2023-04-12T07:51:05.847Z,3.07
2023-04-12T07:53:33.611Z,5.63
2023-04-12T07:56:03.965Z,3.10
2023-04-12T07:58:32.039Z,3.00
2023-04-12T08:01:01.613Z,3.50
2023-04-12T08:03:29.739Z,4.20
2023-04-12T08:05:57.736Z,3.83
2023-04-12T08:08:25.944Z,6.00
2023-04-12T08:10:53.942Z,2.60
2023-04-12T08:13:22.200Z,1.90
2023-04-12T08:15:50.259Z,3.27
2023-04-12T08:18:19.560Z,3.90
2023-04-12T08:20:49.233Z,2.87
2023-04-12T08:23:17.699Z,2.83
2023-04-12T08:25:45.733Z,3.43
2023-04-12T08:28:13.967Z,1.83
2023-04-12T08:30:41.912Z,1.93
2023-04-12T08:33:09.931Z,3.17
2023-04-12T08:35:39.970Z,2.07
2023-04-12T08:38:08.059Z,5.00
2023-04-12T08:40:36.293Z,4.60
2023-04-12T08:43:04.536Z,2.00
2023-04-12T08:45:32.485Z,5.10
2023-04-12T08:48:01.663Z,4.50
2023-04-12T08:50:29.645Z,8.03
2023-04-12T08:52:59.529Z,2.43
2023-04-12T08:55:27.505Z,3.83
2023-04-12T08:57:56.455Z,6.07
2023-04-12T09:00:24.473Z,6.10
2023-04-12T09:02:52.414Z,3.70
2023-04-12T09:05:20.381Z,4.70
2023-04-12T09:07:48.240Z,7.17
2023-04-12T09:10:31.296Z,5.17
2023-04-12T09:12:59.122Z,4.90
2023-04-12T09:15:26.963Z,2.93
2023-04-12T09:18:05.211Z,6.40
2023-04-12T09:20:33.161Z,3.43
2023-04-12T09:23:02.727Z,3.50
2023-04-12T09:25:44.641Z,5.20
2023-04-12T09:28:25.790Z,3.60
2023-04-12T09:30:53.869Z,3.37
2023-04-12T09:33:22.541Z,3.10
2023-04-12T09:35:50.423Z,5.07
2023-04-12T09:38:18.232Z,4.23
2023-04-12T09:40:47.520Z,6.43
2023-04-12T09:43:15.767Z,5.63
2023-04-12T09:45:43.889Z,5.10
2023-04-12T09:48:20.182Z,7.40
2023-04-12T09:50:48.075Z,5.30
2023-04-12T09:53:18.112Z,5.90
2023-04-12T09:55:47.372Z,5.03
2023-04-12T09:58:15.526Z,3.47
2023-04-12T10:00:44.072Z,7.87
2023-04-12T10:03:14.098Z,3.23
2023-04-12T10:05:46.021Z,5.97
2023-04-12T10:08:15.208Z,5.43
2023-04-12T10:10:44.487Z,3.00
2023-04-12T10:13:13.927Z,3.97
2023-04-12T10:15:41.888Z,3.03
2023-04-12T10:18:10.071Z,3.10
2023-04-12T10:20:38.096Z,3.20
2023-04-12T10:23:06.948Z,4.50
2023-04-12T10:25:38.697Z,2.73
2023-04-12T10:28:16.511Z,5.27
2023-04-12T10:30:44.816Z,3.67
2023-04-12T10:33:13.997Z,3.67
2023-04-12T10:35:56.724Z,3.63
2023-04-12T10:38:26.587Z,2.93
2023-04-12T10:41:13.398Z,2.90
2023-04-12T10:43:42.872Z,3.57
2023-04-12T10:46:25.872Z,4.50
2023-04-12T10:48:53.911Z,4.70
2023-04-12T10:51:25.289Z,3.83
2023-04-12T10:53:53.167Z,8.30
2023-04-12T10:56:37.195Z,2.50
2023-04-12T10:59:06.796Z,3.67
2023-04-12T11:01:37.685Z,4.87
2023-04-12T11:04:07.914Z,2.80
2023-04-12T11:06:58.499Z,5.30
2023-04-12T11:09:27.657Z,3.20
2023-04-12T11:12:00.243Z,2.60
2023-04-12T11:14:35.764Z,3.13
2023-04-12T11:17:23.626Z,3.27
2023-04-12T11:19:54.157Z,3.90
2023-04-12T11:22:25.403Z,2.33
2023-04-12T11:24:54.679Z,2.60
2023-04-12T11:27:23.258Z,2.73
2023-04-12T11:29:54.539Z,5.20
2023-04-12T11:32:23.223Z,3.40
2023-04-12T11:34:51.445Z,2.53
2023-04-12T11:37:22.585Z,2.83
2023-04-12T11:39:53.490Z,2.80
2023-04-12T11:42:23.395Z,2.70
2023-04-12T11:44:58.780Z,2.47
2023-04-12T11:47:30.057Z,2.30
2023-04-12T11:50:00.064Z,2.63
2023-04-12T11:52:30.153Z,2.60
2023-04-12T11:55:00.262Z,2.80
2023-04-12T11:57:29.202Z,2.80
2023-04-12T12:00:01.801Z,2.13
2023-04-12T12:02:33.290Z,2.17
2023-04-12T12:05:05.082Z,2.50
2023-04-12T12:07:33.953Z,2.83
2023-04-12T12:10:02.092Z,2.10
2023-04-12T12:12:30.126Z,1.90
2023-04-12T12:15:02.219Z,2.13
2023-04-12T12:17:30.397Z,2.13
2023-04-12T12:19:58.617Z,2.20
2023-04-12T12:22:26.615Z,2.60
2023-04-12T12:24:56.768Z,5.60
2023-04-12T12:27:25.827Z,2.13
2023-04-12T12:29:56.075Z,3.17
2023-04-12T12:32:26.214Z,3.70
2023-04-12T12:34:55.554Z,2.00
2023-04-12T12:37:25.630Z,2.40
2023-04-12T12:40:07.259Z,4.50
2023-04-12T12:42:35.890Z,2.37
2023-04-12T12:45:04.645Z,3.80
2023-04-12T12:47:34.441Z,2.50
2023-04-12T12:50:02.668Z,2.13
2023-04-12T12:52:30.984Z,3.73
2023-04-12T12:54:59.271Z,5.70
2023-04-12T12:57:27.250Z,3.00
2023-04-12T12:59:55.350Z,6.83
2023-04-12T13:02:23.489Z,3.37
2023-04-12T13:04:53.318Z,3.57
2023-04-12T13:07:21.476Z,4.17
2023-04-12T13:09:50.091Z,4.10
2023-04-12T13:12:22.116Z,4.50
2023-04-12T13:14:50.151Z,3.83
2023-04-12T13:17:20.715Z,4.23
2023-04-12T13:19:52.022Z,5.50
2023-04-12T13:22:25.143Z,5.30
2023-04-12T13:24:55.339Z,4.70
2023-04-12T13:27:30.105Z,5.03
2023-04-12T13:29:58.360Z,4.73
2023-04-12T13:32:32.149Z,5.40
2023-04-12T13:35:00.836Z,4.70
2023-04-12T13:37:30.486Z,4.30
2023-04-12T13:39:58.828Z,4.40
2023-04-12T13:42:27.385Z,4.80
2023-04-12T13:44:55.618Z,7.23
2023-04-12T13:47:23.724Z,5.60
2023-04-12T13:49:51.928Z,4.60
2023-04-12T13:52:19.879Z,4.50
2023-04-12T13:54:49.295Z,5.23
2023-04-12T13:57:18.729Z,5.70
2023-04-12T13:59:49.891Z,4.47
2023-04-12T14:02:21.331Z,6.03
2023-04-12T14:04:55.916Z,5.00
2023-04-12T14:07:24.374Z,5.40
2023-04-12T14:10:02.529Z,6.80
2023-04-12T14:12:33.475Z,6.40
2023-04-12T14:15:03.918Z,6.10
2023-04-12T14:17:33.214Z,5.10
2023-04-12T14:20:01.461Z,4.50
2023-04-12T14:22:33.118Z,5.57
2023-04-12T14:25:03.001Z,4.70
2023-04-12T14:27:32.661Z,4.70
2023-04-12T14:30:08.989Z,4.80
2023-04-12T14:32:40.187Z,7.00
2023-04-12T14:35:14.992Z,4.60
2023-04-12T14:37:46.772Z,4.47
2023-04-12T14:40:18.011Z,5.00
2023-04-12T14:42:46.133Z,5.17
2023-04-12T14:45:15.284Z,4.17
2023-04-12T14:47:43.256Z,4.53
2023-04-12T14:50:12.201Z,5.20
2023-04-12T14:52:40.380Z,3.80
2023-04-12T14:55:10.889Z,4.10
2023-04-12T14:57:40.385Z,3.47
2023-04-12T15:00:15.586Z,3.93
2023-04-12T15:02:44.600Z,4.93
2023-04-12T15:05:13.356Z,3.80
2023-04-12T15:07:41.429Z,4.17
2023-04-12T15:10:11.270Z,4.30
2023-04-12T15:12:40.799Z,4.60
2023-04-12T15:15:10.101Z,4.03
2023-04-12T15:17:38.390Z,5.33
2023-04-12T15:20:11.571Z,3.87
2023-04-12T15:22:39.746Z,4.40
2023-04-12T15:25:09.756Z,4.13
2023-04-12T15:27:38.196Z,3.90
2023-04-12T15:30:18.570Z,3.53
2023-04-12T15:32:47.225Z,3.43
2023-04-12T15:35:26.366Z,3.70
2023-04-12T15:37:55.883Z,3.57
2023-04-12T15:40:24.597Z,3.30
2023-04-12T15:42:52.838Z,3.10
2023-04-12T15:45:22.827Z,3.33
2023-04-12T15:47:51.016Z,3.63
2023-04-12T15:50:19.247Z,3.10
2023-04-12T15:52:47.825Z,3.87
2023-04-12T15:55:18.411Z,2.90
2023-04-12T15:57:47.042Z,2.90
2023-04-12T16:00:23.849Z,3.30
2023-04-12T16:02:55.011Z,3.37
2023-04-12T16:05:24.850Z,3.13
2023-04-12T16:07:52.801Z,3.50
2023-04-12T16:10:21.132Z,2.70
2023-04-12T16:13:02.641Z,2.73
2023-04-12T16:16:02.222Z,2.87
2023-04-12T16:19:37.898Z,3.10
2023-04-12T16:26:42.832Z,3.20
2023-04-12T16:29:19.792Z,2.80
2023-04-12T16:32:05.477Z,2.70
2023-04-12T16:35:10.767Z,3.93
2023-04-12T16:37:52.153Z,3.00
2023-04-12T16:40:29.769Z,4.70
2023-04-12T16:43:13.407Z,4.10
2023-04-12T16:46:04.930Z,4.80
2023-04-12T16:48:38.887Z,7.70
2023-04-12T16:51:08.570Z,5.83
2023-04-12T16:53:38.365Z,6.90
2023-04-12T16:56:07.350Z,7.70
2023-04-12T16:58:36.122Z,7.07
2023-04-12T17:01:04.672Z,7.00
2023-04-12T17:03:33.191Z,8.00
2023-04-12T17:06:01.261Z,8.23
2023-04-12T17:08:29.545Z,9.30
2023-04-12T17:10:59.336Z,11.43
2023-04-12T17:13:30.917Z,11.27
2023-04-12T17:15:59.400Z,8.57
2023-04-12T17:18:27.569Z,11.80
2023-04-12T17:20:56.037Z,11.17
2023-04-12T17:23:24.084Z,9.67
2023-04-12T17:25:52.426Z,10.50
2023-04-12T17:28:21.954Z,8.33
2023-04-12T17:30:49.889Z,10.70
2023-04-12T17:33:18.993Z,8.73
2023-04-12T17:35:47.913Z,9.90
2023-04-12T17:38:19.301Z,10.90
2023-04-12T17:40:47.927Z,9.27
2023-04-12T17:43:15.993Z,10.40
2023-04-12T17:45:45.683Z,8.70
2023-04-12T17:48:15.036Z,11.63
2023-04-12T17:50:45.384Z,11.27
2023-04-12T17:53:19.998Z,10.50
2023-04-12T17:55:49.540Z,11.80
2023-04-12T17:58:19.099Z,11.07
2023-04-12T18:00:48.606Z,8.40
2023-04-12T18:03:18.307Z,8.47
2023-04-12T18:05:51.469Z,10.43
2023-04-12T18:08:38.283Z,8.50
2023-04-12T18:11:15.883Z,9.33
2023-04-12T18:13:49.287Z,10.97
2023-04-12T18:16:21.384Z,9.83
2023-04-12T18:18:50.129Z,13.73
2023-04-12T18:21:21.520Z,11.00
2023-04-12T18:23:56.839Z,10.93
2023-04-12T18:26:26.585Z,11.63
2023-04-12T18:28:57.266Z,13.37
2023-04-12T18:31:51.960Z,9.67
2023-04-12T18:34:43.223Z,13.20
2023-04-12T18:37:13.500Z,12.23
2023-04-12T18:39:45.935Z,11.20
2023-04-12T18:42:29.455Z,11.63
2023-04-12T18:45:17.584Z,12.30
2023-04-12T18:48:25.453Z,10.37
2023-04-12T18:51:03.005Z,10.60
2023-04-12T18:53:32.326Z,11.10
2023-04-12T18:56:09.059Z,11.40
2023-04-12T18:58:54.526Z,10.00
2023-04-12T19:01:24.102Z,11.50
2023-04-12T19:04:01.612Z,8.33
2023-04-12T19:06:42.459Z,10.10
2023-04-12T19:09:24.935Z,14.77
2023-04-12T19:12:18.415Z,10.73
2023-04-12T19:14:49.618Z,10.13
2023-04-12T19:17:19.689Z,10.90
2023-04-12T19:19:51.710Z,7.30
2023-04-12T19:22:22.813Z,7.77
2023-04-12T19:24:51.154Z,12.53
2023-04-12T19:27:19.352Z,8.53
2023-04-12T19:29:47.366Z,7.43
2023-04-12T19:32:15.362Z,7.83
2023-04-12T19:34:43.726Z,7.83
2023-04-12T19:37:13.174Z,8.63
2023-04-12T19:39:46.816Z,7.97
2023-04-12T19:42:16.428Z,7.87
2023-04-12T19:44:45.223Z,8.13
2023-04-12T19:47:16.810Z,7.27
2023-04-12T19:49:50.927Z,10.52
2023-04-12T19:52:59.959Z,7.40
2023-04-12T19:55:39.022Z,7.80
2023-04-12T19:58:08.117Z,6.53
2023-04-12T20:00:44.219Z,5.97
2023-04-12T20:03:12.740Z,6.33
2023-04-12T20:05:55.533Z,7.00
2023-04-12T20:08:34.243Z,8.20
2023-04-12T20:11:09.418Z,10.10
2023-04-12T20:13:45.499Z,8.83
2023-04-12T20:16:24.264Z,7.50
2023-04-12T20:19:01.923Z,7.27
2023-04-12T20:21:39.930Z,6.53
2023-04-12T20:24:56.886Z,6.03
2023-04-12T20:27:21.954Z,7.00
2023-04-12T20:30:14.374Z,4.90
2023-04-12T20:32:55.270Z,6.30
2023-04-12T20:35:46.909Z,7.63
2023-04-12T20:38:15.697Z,6.30
2023-04-12T20:40:45.545Z,7.13
2023-04-12T20:43:13.510Z,7.40
2023-04-12T20:45:41.670Z,5.77
2023-04-12T20:48:09.772Z,5.00
2023-04-12T20:50:38.767Z,6.03
2023-04-12T20:53:06.628Z,4.83
2023-04-12T20:55:34.999Z,5.40
2023-04-12T20:58:06.383Z,6.70
2023-04-12T21:00:35.601Z,8.83
2023-04-12T21:03:04.425Z,4.43
2023-04-12T21:05:33.700Z,6.53
2023-04-12T21:08:02.104Z,4.20
2023-04-12T21:10:29.891Z,6.53
2023-04-12T21:13:01.719Z,5.17
2023-04-12T21:15:35.297Z,7.00
2023-04-12T21:18:04.872Z,6.37
2023-04-12T21:20:34.284Z,6.20
2023-04-12T21:23:04.226Z,5.87
2023-04-12T21:25:33.207Z,6.40
2023-04-12T21:28:01.028Z,5.53
2023-04-12T21:30:30.920Z,6.20
2023-04-12T21:32:59.221Z,3.77
2023-04-12T21:35:27.281Z,5.10
2023-04-12T21:37:55.545Z,5.43
2023-04-12T21:40:23.865Z,4.50
2023-04-12T21:42:51.879Z,4.17
2023-04-12T21:45:19.836Z,6.20
2023-04-12T21:47:49.501Z,6.80
2023-04-12T21:50:17.852Z,6.33
2023-04-12T21:52:47.280Z,6.13
2023-04-12T21:55:15.365Z,5.87
2023-04-12T21:57:43.273Z,4.60
2023-04-12T22:00:12.333Z,4.70
2023-04-12T22:02:40.401Z,3.77
2023-04-12T22:05:10.377Z,5.90
2023-04-12T22:07:41.179Z,5.77
2023-04-12T22:10:12.463Z,5.20
2023-04-12T22:12:40.757Z,5.67
2023-04-12T22:15:12.072Z,4.07
2023-04-12T22:17:40.818Z,4.67
2023-04-12T22:20:12.021Z,3.53
2023-04-12T22:22:40.009Z,7.60
2023-04-12T22:25:12.021Z,5.00
2023-04-12T22:27:39.917Z,3.50
2023-04-12T22:30:10.012Z,3.73
2023-04-12T22:32:38.090Z,5.07
2023-04-12T22:35:08.848Z,5.17
2023-04-12T22:37:38.825Z,8.77
2023-04-12T22:40:11.692Z,4.47
2023-04-12T22:42:46.506Z,4.87
2023-04-12T22:45:15.296Z,7.50
2023-04-12T22:47:43.149Z,5.10
2023-04-12T22:50:13.087Z,4.17
2023-04-12T22:52:42.390Z,5.23
2023-04-12T22:55:11.633Z,3.83
2023-04-12T22:57:40.150Z,3.70
2023-04-12T23:00:18.089Z,4.93
2023-04-12T23:02:47.771Z,5.80
2023-04-12T23:05:16.593Z,7.50
2023-04-12T23:07:45.984Z,11.40
2023-04-12T23:10:14.092Z,7.30
2023-04-12T23:12:41.840Z,8.97
2023-04-12T23:15:11.008Z,11.50
2023-04-12T23:17:38.972Z,10.20
2023-04-12T23:20:12.864Z,14.60
2023-04-12T23:22:57.472Z,15.07
2023-04-12T23:25:37.778Z,12.43
2023-04-12T23:28:07.502Z,11.57
2023-04-12T23:30:35.248Z,11.80
2023-04-12T23:33:03.577Z,11.90
2023-04-12T23:35:31.390Z,14.80
2023-04-12T23:38:01.478Z,13.47
2023-04-12T23:40:30.566Z,13.03
2023-04-12T23:42:58.613Z,12.50
2023-04-12T23:45:26.417Z,12.17
2023-04-12T23:47:54.198Z,15.13
2023-04-12T23:50:22.143Z,14.70
2023-04-12T23:52:49.955Z,13.03
2023-04-12T23:55:18.085Z,11.87
2023-04-12T23:57:47.413Z,12.20
